Time;durP1;ratioP1;P1;durP2;ratioP2;P2;SDS_P1;SDS_P2;PMS_P1;PMS_P2;Temp;Humidity;BMP_temperature;BMP_pressure;BME280_temperature;BME280_humidity;BME280_pressure;Samples;Min_cycle;Max_cycle;Signal;HPM_P1;HPM_P2
2022/05/16 00:00:24;;;;;;;3.50;1.80;;;;;;;16.21;53.16;98924.13;4972678;28;42747;-79
2022/05/16 00:02:52;;;;;;;1.83;1.70;;;;;;;16.15;52.82;98922.84;4972789;28;41963;-77
2022/05/16 00:05:21;;;;;;;1.87;1.77;;;;;;;16.10;52.99;98925.06;4972258;28;43765;-76
2022/05/16 00:07:49;;;;;;;1.93;1.80;;;;;;;15.94;53.20;98903.28;4972740;28;40999;-76
2022/05/16 00:10:17;;;;;;;2.53;2.20;;;;;;;15.99;52.94;98911.75;4973463;28;42569;-77
2022/05/16 00:12:45;;;;;;;2.17;1.97;;;;;;;15.93;53.37;98909.59;4972833;28;43654;-78
2022/05/16 00:15:15;;;;;;;2.47;1.67;;;;;;;15.87;53.43;98909.25;4955976;28;41354;-73
2022/05/16 00:17:45;;;;;;;2.63;1.77;;;;;;;15.82;53.26;98912.31;4971305;28;40005;-75
2022/05/16 00:20:15;;;;;;;3.17;1.80;;;;;;;15.62;53.40;98879.25;4971889;28;41068;-76
2022/05/16 00:22:43;;;;;;;1.93;1.83;;;;;;;15.72;53.61;98900.69;4972501;28;43748;-77
2022/05/16 00:25:13;;;;;;;1.97;1.63;;;;;;;15.64;53.83;98904.00;4972793;28;42377;-77
2022/05/16 00:27:40;;;;;;;1.90;1.77;;;;;;;15.53;54.05;98896.00;4955235;28;40087;-76
2022/05/16 00:30:12;;;;;;;2.40;2.10;;;;;;;15.53;54.46;98905.81;4971813;28;42663;-79
2022/05/16 00:32:40;;;;;;;1.93;1.67;;;;;;;15.49;54.66;98893.69;4973632;28;42346;-75
2022/05/16 00:35:11;;;;;;;2.30;1.67;;;;;;;15.43;54.41;98895.91;4971496;28;42106;-78
2022/05/16 00:37:39;;;;;;;2.07;1.83;;;;;;;15.34;54.61;98879.78;4970475;28;40738;-80
2022/05/16 00:40:10;;;;;;;2.57;1.90;;;;;;;15.33;54.38;98892.28;4972016;28;41506;-76
2022/05/16 00:42:38;;;;;;;3.73;1.90;;;;;;;15.32;55.06;98884.41;4970405;28;42773;-78
2022/05/16 00:45:08;;;;;;;2.40;1.70;;;;;;;15.28;55.10;98890.97;4971499;28;41106;-78
2022/05/16 00:47:37;;;;;;;4.33;1.90;;;;;;;15.23;54.99;98888.66;4969368;28;40952;-76
2022/05/16 00:50:08;;;;;;;1.70;1.60;;;;;;;15.20;54.82;98894.28;4973035;28;41672;-74
2022/05/16 00:52:39;;;;;;;2.40;1.57;;;;;;;15.18;54.64;98896.19;4972246;28;43499;-79
2022/05/16 00:55:11;;;;;;;1.77;1.67;;;;;;;15.14;54.57;98892.09;4971919;28;41326;-80
2022/05/16 00:57:42;;;;;;;2.00;1.70;;;;;;;15.09;55.25;98880.91;4970460;28;39852;-76
2022/05/16 01:00:13;;;;;;;2.30;1.80;;;;;;;15.10;55.21;98879.94;4967182;28;41876;-76
2022/05/16 01:05:32;;;;;;;2.70;2.00;;;;;;;15.04;55.26;98872.47;4950822;28;43117;-77
2022/05/16 01:08:04;;;;;;;2.20;1.97;;;;;;;15.00;55.68;98860.34;4970486;28;40061;-76
2022/05/16 01:10:33;;;;;;;4.10;1.77;;;;;;;14.99;55.66;98859.47;4935901;28;42048;-77
2022/05/16 01:13:03;;;;;;;2.43;1.93;;;;;;;14.97;56.48;98850.75;4964395;28;43496;-77
2022/05/16 01:15:33;;;;;;;3.03;2.23;;;;;;;14.96;56.19;98853.56;4971357;28;44861;-78
2022/05/16 01:18:01;;;;;;;3.37;1.90;;;;;;;14.94;56.09;98861.69;4972958;28;40381;-80
2022/05/16 01:20:44;;;;;;;2.17;1.97;;;;;;;14.95;55.97;98860.72;4971307;28;41812;-76
2022/05/16 01:23:17;;;;;;;1.73;1.63;;;;;;;14.94;55.98;98852.84;4950318;28;43562;-75
2022/05/16 01:25:44;;;;;;;2.37;1.67;;;;;;;14.91;55.92;98861.06;4937175;28;41419;-78
2022/05/16 01:28:17;;;;;;;2.70;2.03;;;;;;;14.67;55.64;98834.56;4964446;28;39560;-76
2022/05/16 01:30:47;;;;;;;2.20;1.80;;;;;;;14.86;56.20;98849.91;4948329;28;41075;-76
2022/05/16 01:33:14;;;;;;;4.47;2.10;;;;;;;14.86;56.47;98863.25;4953225;28;43788;-74
2022/05/16 01:35:42;;;;;;;5.23;2.63;;;;;;;14.86;56.25;98869.44;4952036;28;42538;-76
2022/05/16 01:40:58;;;;;;;2.20;2.00;;;;;;;14.88;55.95;98864.84;4958398;28;43638;-76
2022/05/16 01:43:30;;;;;;;3.80;1.93;;;;;;;14.87;55.98;98864.94;4974639;28;44680;-76
2022/05/16 01:45:58;;;;;;;3.30;2.20;;;;;;;14.85;56.10;98864.22;4973817;28;43271;-76
2022/05/16 01:48:29;;;;;;;3.07;2.03;;;;;;;14.82;56.13;98856.50;4958402;28;38993;-75
2022/05/16 01:50:59;;;;;;;2.53;1.90;;;;;;;14.78;56.41;98865.69;4958454;28;42360;-76
2022/05/16 01:53:27;;;;;;;2.40;1.70;;;;;;;14.76;56.43;98863.13;4958400;28;43330;-75
2022/05/16 01:55:56;;;;;;;2.37;2.17;;;;;;;14.73;56.82;98866.88;4958016;28;41220;-77
2022/05/16 01:58:25;;;;;;;2.23;1.90;;;;;;;14.73;56.85;98850.03;4958256;28;38611;-77
2022/05/16 02:00:53;;;;;;;1.97;1.73;;;;;;;14.71;57.18;98850.16;4974090;28;41805;-75
2022/05/16 02:03:21;;;;;;;3.17;2.20;;;;;;;14.69;57.79;98841.47;4974603;28;43730;-75
2022/05/16 02:05:49;;;;;;;3.93;1.90;;;;;;;14.69;57.86;98856.63;4958171;28;40893;-77
2022/05/16 02:08:18;;;;;;;2.47;2.27;;;;;;;14.67;57.65;98854.06;4974669;28;38940;-77
2022/05/16 02:10:46;;;;;;;3.20;2.03;;;;;;;14.61;57.24;98846.53;4974228;28;40631;-75
2022/05/16 02:13:16;;;;;;;4.07;2.17;;;;;;;14.64;57.29;98838.31;4958240;28;42572;-76
2022/05/16 02:15:45;;;;;;;1.93;1.83;;;;;;;14.63;57.28;98831.28;4973989;28;44017;-75
2022/05/16 02:18:13;;;;;;;2.73;2.00;;;;;;;14.53;57.36;98814.31;4975663;28;40976;-73
2022/05/16 02:20:42;;;;;;;2.77;1.60;;;;;;;14.57;57.39;98820.28;4958170;28;41431;-77
2022/05/16 02:25:57;;;;;;;2.23;1.90;;;;;;;14.51;57.43;98821.59;4973820;28;41987;-75
2022/05/16 02:28:26;;;;;;;3.30;2.20;;;;;;;14.51;57.66;98816.25;4973896;28;39574;-75
2022/05/16 02:30:55;;;;;;;2.10;2.00;;;;;;;14.48;57.73;98821.81;4973243;28;41844;-76
2022/05/16 02:33:23;;;;;;;3.73;2.00;;;;;;;14.40;57.90;98794.94;4975019;28;44340;-75
2022/05/16 02:35:51;;;;;;;3.40;2.20;;;;;;;14.45;57.51;98815.91;4973837;28;42365;-76
2022/05/16 02:38:20;;;;;;;2.70;1.87;;;;;;;14.44;57.59;98815.06;4974151;28;39954;-76
2022/05/16 02:40:48;;;;;;;3.33;1.90;;;;;;;14.40;57.69;98807.41;4957447;28;42999;-77
2022/05/16 02:43:15;;;;;;;2.73;2.37;;;;;;;14.38;57.61;98811.03;4975299;28;43766;-78
2022/05/16 02:45:45;;;;;;;3.53;2.00;;;;;;;14.37;57.79;98813.81;4974833;28;43017;-74
2022/05/16 02:48:12;;;;;;;3.53;2.10;;;;;;;14.34;58.55;98803.41;4973889;28;40815;-76
2022/05/16 02:50:40;;;;;;;3.13;2.40;;;;;;;14.33;58.59;98799.91;4973718;28;42797;-78
2022/05/16 02:53:08;;;;;;;3.73;2.10;;;;;;;14.31;58.58;98804.50;4973773;28;42497;-77
2022/05/16 02:55:35;;;;;;;3.53;2.40;;;;;;;14.30;58.61;98805.47;4974788;28;42729;-77
2022/05/16 02:58:03;;;;;;;2.73;2.10;;;;;;;14.27;58.55;98803.03;4957578;28;41142;-76
2022/05/16 03:00:31;;;;;;;2.60;2.07;;;;;;;14.20;58.25;98785.00;4957341;28;43165;-76
2022/05/16 03:03:00;;;;;;;2.13;1.93;;;;;;;14.23;58.40;98790.91;4973329;28;41656;-76
2022/05/16 03:05:27;;;;;;;2.50;2.30;;;;;;;14.22;58.37;98789.22;4973301;28;43684;-77
2022/05/16 03:07:55;;;;;;;2.03;1.60;;;;;;;14.21;58.38;98792.03;4973664;28;40214;-77
2022/05/16 03:10:23;;;;;;;3.50;1.90;;;;;;;14.18;58.83;98790.44;4957479;28;41031;-74
2022/05/16 03:12:51;;;;;;;4.33;2.77;;;;;;;14.17;58.85;98782.56;4974875;28;43878;-78
2022/05/16 03:15:19;;;;;;;2.50;2.27;;;;;;;14.21;58.96;98797.34;4973981;28;42265;-77
2022/05/16 03:17:47;;;;;;;4.67;2.10;;;;;;;14.20;58.90;98809.81;4974593;28;41732;-75
2022/05/16 03:20:17;;;;;;;3.67;2.20;;;;;;;14.20;58.78;98803.63;4957000;28;40669;-74
2022/05/16 03:22:45;;;;;;;2.57;1.93;;;;;;;14.19;58.63;98805.47;4973149;28;41605;-74
2022/05/16 03:25:12;;;;;;;2.40;1.70;;;;;;;14.16;58.18;98804.84;4956779;28;41474;-75
2022/05/16 03:27:40;;;;;;;2.33;1.87;;;;;;;14.22;58.37;98812.34;4974626;28;40020;-78
2022/05/16 03:30:10;;;;;;;2.50;1.90;;;;;;;14.18;58.62;98808.22;4972976;28;42671;-77
2022/05/16 03:32:38;;;;;;;3.60;1.93;;;;;;;14.18;58.50;98802.91;4974000;28;43816;-76
2022/05/16 03:35:07;;;;;;;4.53;2.10;;;;;;;14.20;59.19;98806.31;4972705;28;42783;-75
2022/05/16 03:37:36;;;;;;;5.60;2.27;;;;;;;14.21;58.93;98810.66;4973171;28;39801;-77
2022/05/16 03:42:50;;;;;;;2.77;2.00;;;;;;;14.26;59.24;98803.16;4972911;28;42051;-76
2022/05/16 03:45:18;;;;;;;2.70;1.90;;;;;;;14.30;59.44;98802.78;4972460;28;41385;-78
2022/05/16 03:47:45;;;;;;;3.33;2.13;;;;;;;14.35;59.13;98810.41;4973219;28;38912;-76
2022/05/16 03:50:14;;;;;;;2.97;2.03;;;;;;;14.40;58.89;98802.94;4973650;28;41833;-76
2022/05/16 03:52:44;;;;;;;2.07;1.90;;;;;;;14.44;58.74;98804.41;4956487;28;41854;-75
2022/05/16 03:55:16;;;;;;;3.17;2.07;;;;;;;14.47;59.19;98804.13;4971952;28;43407;-75
2022/05/16 03:57:44;;;;;;;3.43;2.30;;;;;;;14.50;58.93;98809.25;4971330;28;39907;-77
2022/05/16 04:00:15;;;;;;;4.77;2.10;;;;;;;14.56;58.84;98822.09;4972529;28;41465;-78
2022/05/16 04:02:43;;;;;;;2.97;2.43;;;;;;;14.56;58.71;98814.09;4972496;28;42146;-74
2022/05/16 04:05:15;;;;;;;3.10;2.43;;;;;;;14.72;59.08;98824.34;4972419;28;42158;-73
2022/05/16 04:07:44;;;;;;;2.83;2.53;;;;;;;14.82;59.41;98829.81;4970897;28;41951;-74
2022/05/16 04:10:12;;;;;;;2.90;2.43;;;;;;;14.83;59.51;98810.19;4972225;28;41900;-75
2022/05/16 04:12:39;;;;;;;2.80;2.50;;;;;;;15.07;59.44;98837.53;4972442;28;43218;-76
2022/05/16 04:15:08;;;;;;;2.37;2.10;;;;;;;15.20;58.66;98843.59;4956099;28;43029;-77
2022/05/16 04:17:36;;;;;;;3.80;2.40;;;;;;;15.37;58.83;98843.03;4956448;28;40696;-78
2022/05/16 04:20:04;;;;;;;3.13;2.20;;;;;;;15.52;58.54;98840.06;4969967;28;41869;-76
2022/05/16 04:22:31;;;;;;;3.73;2.33;;;;;;;15.67;58.34;98850.34;4968698;28;43273;-74
2022/05/16 04:25:01;;;;;;;3.57;2.37;;;;;;;15.80;58.46;98845.69;4971740;28;42357;-74
2022/05/16 04:27:28;;;;;;;3.93;2.47;;;;;;;15.92;58.24;98848.28;4956244;28;39379;-76
2022/05/16 04:29:56;;;;;;;3.20;2.70;;;;;;;16.01;58.09;98847.50;4972208;28;41991;-76
2022/05/16 04:32:24;;;;;;;3.10;2.47;;;;;;;16.09;58.30;98855.72;4972828;28;42756;-77
2022/05/16 04:34:52;;;;;;;3.17;2.33;;;;;;;16.15;58.03;98850.72;4972443;28;42939;-75
2022/05/16 04:37:19;;;;;;;4.27;2.30;;;;;;;16.16;58.05;98847.06;4971908;28;38890;-78
2022/05/16 04:39:47;;;;;;;3.43;2.47;;;;;;;16.27;58.24;98850.63;4971375;28;41970;-75
2022/05/16 04:45:16;;;;;;;3.33;2.10;;;;;;;16.33;58.46;98858.09;4915112;29;41169;-74
2022/05/16 04:47:45;;;;;;;2.33;1.97;;;;;;;16.34;58.72;98857.13;4958196;28;39420;-76
2022/05/16 04:50:16;;;;;;;2.80;2.23;;;;;;;16.36;58.59;98852.50;4970031;28;41565;-73
2022/05/16 04:52:44;;;;;;;2.77;2.17;;;;;;;16.33;59.10;98847.41;4970530;28;42873;-78
2022/05/16 04:55:12;;;;;;;4.80;2.60;;;;;;;16.39;59.05;98858.44;4970243;28;42166;-74
2022/05/16 04:57:42;;;;;;;5.10;2.67;;;;;;;16.43;59.15;98859.88;4970958;28;39954;-75
2022/05/16 05:00:12;;;;;;;3.73;2.50;;;;;;;16.48;59.28;98868.34;4971392;28;42704;-75
2022/05/16 05:02:40;;;;;;;4.43;2.37;;;;;;;16.49;59.66;98870.03;4955780;28;42734;-78
2022/05/16 05:05:09;;;;;;;3.80;2.77;;;;;;;16.54;59.33;98866.97;4955301;28;43810;-77
2022/05/16 05:07:37;;;;;;;4.27;2.90;;;;;;;16.51;59.15;98854.72;4957879;28;38552;-79
2022/05/16 05:15:39;;;;;;;7.40;3.47;;;;;;;16.71;60.02;98869.03;4960483;28;42321;-75
2022/05/16 05:18:07;;;;;;;3.50;2.67;;;;;;;16.71;59.46;98861.00;4957998;28;39813;-75
2022/05/16 05:20:35;;;;;;;3.97;2.83;;;;;;;16.69;59.25;98864.81;4961312;28;40652;-78
2022/05/16 05:23:04;;;;;;;5.53;2.73;;;;;;;16.69;59.57;98876.34;4953310;28;42610;-77
2022/05/16 05:25:32;;;;;;;3.00;2.40;;;;;;;16.67;59.11;98878.31;4953068;28;42369;-76
2022/05/16 05:28:04;;;;;;;2.57;2.23;;;;;;;16.66;58.91;98876.63;4936627;28;40137;-79
2022/05/16 05:30:32;;;;;;;3.10;2.40;;;;;;;16.67;58.85;98875.66;4951281;28;42193;-76
2022/05/16 05:33:00;;;;;;;2.70;2.37;;;;;;;16.68;58.59;98889.88;4934826;28;42836;-77
2022/05/16 05:35:29;;;;;;;3.57;2.37;;;;;;;16.66;59.11;98879.31;4934797;28;43460;-77
2022/05/16 05:37:57;;;;;;;6.47;2.77;;;;;;;16.65;58.60;98874.09;4951178;28;38963;-78
2022/05/16 05:40:25;;;;;;;3.50;2.47;;;;;;;16.69;58.66;98887.03;4950580;28;40521;-75
2022/05/16 05:42:52;;;;;;;3.67;2.80;;;;;;;16.73;58.43;98867.06;4934825;28;41781;-78
2022/05/16 05:45:21;;;;;;;4.80;3.00;;;;;;;16.96;58.25;98885.59;4950512;28;43205;-77
2022/05/16 05:47:49;;;;;;;2.47;2.27;;;;;;;17.11;57.76;98877.06;4952292;28;40804;-75
2022/05/16 05:50:17;;;;;;;3.37;2.60;;;;;;;17.32;57.90;98876.13;4952199;28;42820;-75
2022/05/16 05:52:45;;;;;;;2.90;2.50;;;;;;;17.52;57.65;98884.06;4935110;28;42935;-78
2022/05/16 05:55:12;;;;;;;3.33;3.03;;;;;;;17.77;57.16;98873.84;4950897;28;43192;-78
2022/05/16 05:57:40;;;;;;;3.63;2.77;;;;;;;18.04;56.53;98883.84;4951251;28;40029;-76
2022/05/16 06:00:09;;;;;;;3.93;3.40;;;;;;;18.27;56.10;98883.38;4950579;28;40799;-76
2022/05/16 06:02:40;;;;;;;3.63;2.93;;;;;;;18.48;55.57;98877.84;4951979;28;42841;-77
2022/05/16 06:05:08;;;;;;;2.87;2.67;;;;;;;18.57;55.65;98884.16;4936522;28;41301;-76
2022/05/16 06:07:36;;;;;;;2.80;2.60;;;;;;;18.71;55.42;98877.50;4951096;28;40091;-75
2022/05/16 06:10:04;;;;;;;4.40;3.03;;;;;;;18.89;55.36;98879.28;4953763;28;42653;-73
2022/05/16 06:12:33;;;;;;;5.80;3.60;;;;;;;19.07;54.74;98883.84;4947659;28;42979;-76
2022/05/16 06:15:01;;;;;;;4.33;2.90;;;;;;;19.24;54.42;98883.06;4951693;28;43301;-76
2022/05/16 06:17:29;;;;;;;4.40;3.00;;;;;;;19.40;54.04;98883.25;4971936;28;40049;-73
2022/05/16 06:19:58;;;;;;;3.90;3.10;;;;;;;19.66;53.36;98880.69;4973066;28;43242;-76
2022/05/16 06:22:26;;;;;;;4.33;2.93;;;;;;;19.99;53.38;98884.56;4971131;28;42817;-74
2022/05/16 06:27:38;;;;;;;6.80;3.90;;;;;;;20.47;52.02;98894.03;4984300;28;39141;-74
2022/05/16 06:30:06;;;;;;;4.57;2.93;;;;;;;20.59;50.67;98895.47;4993934;28;42383;-75
2022/05/16 06:32:34;;;;;;;5.00;3.30;;;;;;;20.68;50.87;98898.03;4976278;28;42914;-74
2022/05/16 06:35:03;;;;;;;4.57;3.20;;;;;;;20.74;51.21;98875.03;4993860;28;43207;-74
2022/05/16 06:37:31;;;;;;;5.40;3.47;;;;;;;20.92;51.47;98888.41;4991108;28;42351;-75
2022/05/16 06:39:58;;;;;;;7.53;3.93;;;;;;;21.05;51.02;98884.28;4992656;28;42860;-76
2022/05/16 06:42:25;;;;;;;5.07;3.17;;;;;;;21.36;49.63;98891.84;4991901;28;43186;-77
2022/05/16 06:44:53;;;;;;;6.27;3.17;;;;;;;21.70;50.26;98895.31;4992833;28;43269;-76
2022/05/16 06:47:21;;;;;;;5.50;3.00;;;;;;;22.08;49.03;98895.72;4965163;28;39160;-74
2022/05/16 06:49:48;;;;;;;3.80;2.90;;;;;;;22.53;48.58;98904.13;4955850;28;40726;-74
2022/05/16 06:52:17;;;;;;;3.70;2.70;;;;;;;22.94;47.02;98909.50;4982013;28;44380;-74
2022/05/16 06:54:45;;;;;;;6.23;3.30;;;;;;;23.34;46.37;98910.38;4992773;28;42274;-75
2022/05/16 06:57:13;;;;;;;3.60;3.30;;;;;;;23.69;45.47;98912.56;4975202;28;39130;-74
2022/05/16 06:59:40;;;;;;;4.50;2.80;;;;;;;24.17;44.86;98916.81;4974691;28;43153;-75
2022/05/16 07:02:08;;;;;;;4.23;3.07;;;;;;;24.51;44.38;98929.94;4974965;28;41730;-76
2022/05/16 07:04:37;;;;;;;6.00;2.97;;;;;;;24.67;44.35;98935.19;4991806;28;43218;-78
2022/05/16 07:07:05;;;;;;;5.30;2.67;;;;;;;25.04;43.30;98931.63;4975552;28;38895;-74
2022/05/16 07:09:36;;;;;;;4.67;3.40;;;;;;;25.32;41.99;98939.97;4992210;28;42179;-76
2022/05/16 07:12:04;;;;;;;4.47;3.37;;;;;;;25.36;41.94;98946.66;4993246;28;42351;-73
2022/05/16 07:14:33;;;;;;;4.17;2.90;;;;;;;25.47;42.47;98939.13;4991966;28;43839;-74
2022/05/16 07:17:01;;;;;;;2.57;2.37;;;;;;;25.54;42.18;98942.72;4993231;28;39956;-75
2022/05/16 07:19:31;;;;;;;5.43;2.57;;;;;;;25.46;41.90;98940.13;4991773;28;41780;-75
2022/05/16 07:21:59;;;;;;;5.60;3.53;;;;;;;25.26;41.57;98934.44;4975552;28;41593;-75
2022/05/16 07:24:26;;;;;;;2.40;2.20;;;;;;;25.14;42.22;98946.78;4975485;28;42030;-76
2022/05/16 07:29:41;;;;;;;3.63;2.60;;;;;;;24.87;43.18;98942.78;4990231;28;42465;-75
2022/05/16 07:32:11;;;;;;;2.87;2.60;;;;;;;24.81;43.63;98935.41;4991859;28;42654;-77
2022/05/16 07:34:39;;;;;;;2.77;2.57;;;;;;;24.76;43.90;98938.66;4991582;28;43320;-74
2022/05/16 07:37:07;;;;;;;3.97;2.70;;;;;;;24.70;43.35;98926.72;4989734;28;39832;-76
2022/05/16 07:39:35;;;;;;;2.50;2.30;;;;;;;24.75;43.64;98936.13;4974580;28;43477;-79
2022/05/16 07:42:08;;;;;;;3.47;2.33;;;;;;;25.02;43.29;98951.81;4991001;28;42853;-77
2022/05/16 07:44:37;;;;;;;4.47;2.70;;;;;;;25.28;42.64;98965.75;4990746;28;41245;-76
2022/05/16 07:47:07;;;;;;;3.77;2.47;;;;;;;25.55;43.16;98968.84;4983388;28;39759;-75
2022/05/16 07:49:34;;;;;;;4.80;2.87;;;;;;;25.81;42.23;98976.50;4970846;28;42314;-76
2022/05/16 07:52:01;;;;;;;4.70;3.03;;;;;;;25.89;41.85;98984.53;4961519;28;41625;-74
2022/05/16 07:54:29;;;;;;;3.70;2.33;;;;;;;25.74;41.60;98981.81;4990080;28;41794;-75
2022/05/16 07:56:57;;;;;;;3.20;2.80;;;;;;;25.69;41.44;98985.13;4983710;28;38976;-77
2022/05/16 07:59:25;;;;;;;3.80;2.77;;;;;;;25.71;42.23;98979.50;4971646;28;40945;-80
2022/05/16 08:01:53;;;;;;;4.43;2.60;;;;;;;26.02;41.36;98984.69;4961283;28;41890;-80
2022/05/16 08:04:21;;;;;;;4.97;2.63;;;;;;;26.51;39.98;98995.66;4990664;28;42375;-76
2022/05/16 08:06:49;;;;;;;5.37;2.90;;;;;;;27.05;39.98;98993.25;4974187;28;40103;-79
2022/05/16 08:12:02;;;;;;;5.30;2.93;;;;;;;28.16;38.29;99007.69;4987309;28;42756;-78
2022/05/16 08:14:31;;;;;;;3.43;2.67;;;;;;;28.52;36.92;99013.66;4973706;28;43723;-75
2022/05/16 08:16:59;;;;;;;4.30;2.67;;;;;;;28.79;37.39;99020.03;4974361;28;39869;-80
2022/05/16 08:19:29;;;;;;;3.77;2.60;;;;;;;28.71;36.29;98992.91;4974405;28;40871;-79
2022/05/16 08:21:56;;;;;;;3.73;2.93;;;;;;;28.70;36.24;98993.97;4991415;28;43687;-76
2022/05/16 08:24:24;;;;;;;5.40;3.00;;;;;;;28.84;36.88;99011.19;4991503;28;43231;-76
2022/05/16 08:26:51;;;;;;;4.03;3.20;;;;;;;28.79;35.74;99014.56;4991578;28;42252;-75
2022/05/16 08:29:19;;;;;;;2.90;2.60;;;;;;;28.92;36.88;99020.03;4990750;28;41745;-74
2022/05/16 08:31:48;;;;;;;3.33;2.67;;;;;;;29.16;37.38;99026.75;4991116;28;43088;-74
2022/05/16 08:34:15;;;;;;;5.90;2.73;;;;;;;30.45;35.72;99028.66;4991948;28;43008;-75
2022/05/16 08:42:14;;;;;;;3.37;3.00;;;;;;;34.15;29.56;99077.72;4974111;28;41516;-78
2022/05/16 08:44:55;;;;;;;3.90;3.10;;;;;;;36.00;26.74;99091.53;4989912;28;42299;-75
2022/05/16 08:47:51;;;;;;;2.93;2.50;;;;;;;36.26;27.36;99094.66;4988142;28;39732;-76
2022/05/16 08:50:23;;;;;;;4.30;2.53;;;;;;;37.51;25.42;99100.94;4987724;28;42728;-79
2022/05/16 08:52:56;;;;;;;3.50;2.60;;;;;;;36.76;25.47;99090.84;4986743;28;43434;-79
2022/05/16 08:55:33;;;;;;;3.20;2.90;;;;;;;35.33;27.12;99079.78;4973522;28;41145;-79
2022/05/16 08:58:09;;;;;;;3.10;2.50;;;;;;;34.15;28.37;99078.56;4971759;28;41044;-76
2022/05/16 09:00:41;;;;;;;3.77;2.60;;;;;;;33.36;29.85;99073.72;4971073;28;40970;-76
2022/05/16 09:03:16;;;;;;;3.20;2.20;;;;;;;32.75;30.33;99072.16;4986571;28;41747;-76
2022/05/16 09:05:49;;;;;;;3.60;2.23;;;;;;;32.14;30.67;99056.69;4989322;28;42353;-76
2022/05/16 09:08:32;;;;;;;3.43;2.53;;;;;;;31.61;31.60;99056.41;4989481;28;39489;-77
2022/05/16 09:11:06;;;;;;;5.43;2.60;;;;;;;30.92;32.33;99055.50;4990151;28;42633;-77
2022/05/16 09:13:48;;;;;;;3.23;2.47;;;;;;;30.32;33.39;99052.28;4989358;28;44124;-77
2022/05/16 09:16:29;;;;;;;5.30;2.23;;;;;;;29.73;34.56;99049.75;4989215;28;42273;-78
2022/05/16 09:19:04;;;;;;;3.17;2.30;;;;;;;29.31;35.42;99046.44;4973769;28;40018;-76
2022/05/16 09:21:44;;;;;;;4.10;2.33;;;;;;;29.15;37.15;99029.69;4990134;28;41652;-77
2022/05/16 09:24:15;;;;;;;3.87;2.23;;;;;;;29.16;38.20;99025.91;4973734;28;43870;-79
2022/05/16 09:26:53;;;;;;;2.90;2.43;;;;;;;29.30;37.60;99024.84;4989793;28;42327;-77
2022/05/16 09:29:25;;;;;;;4.00;2.27;;;;;;;29.41;35.89;99043.31;4973691;28;40182;-78
2022/05/16 09:31:57;;;;;;;3.33;2.33;;;;;;;29.52;35.96;99026.28;4981591;28;42660;-79
2022/05/16 09:34:26;;;;;;;2.33;1.90;;;;;;;29.64;34.63;99046.41;4954220;28;42763;-77
2022/05/16 09:36:53;;;;;;;2.77;2.07;;;;;;;29.80;34.90;99056.00;4977094;28;43424;-76
2022/05/16 09:39:24;;;;;;;1.70;1.60;;;;;;;29.91;35.99;99051.81;4991016;28;41269;-77
2022/05/16 09:42:01;;;;;;;2.70;2.13;;;;;;;29.82;35.52;99044.88;4989052;28;41768;-76
2022/05/16 09:44:31;;;;;;;2.43;2.23;;;;;;;29.70;34.96;99054.78;4987043;28;43780;-74
2022/05/16 09:47:23;;;;;;;2.40;2.20;;;;;;;29.50;36.14;99055.69;4988485;28;41509;-75
2022/05/16 09:50:13;;;;;;;2.40;2.20;;;;;;;29.38;36.33;99046.47;4988797;28;38972;-75
2022/05/16 09:52:48;;;;;;;2.80;2.37;;;;;;;29.26;36.17;99048.13;4987027;28;41758;-74
2022/05/16 09:55:26;;;;;;;3.17;2.23;;;;;;;29.15;36.68;99041.41;4972398;28;42723;-74
2022/05/16 09:57:59;;;;;;;2.17;1.90;;;;;;;29.04;36.74;99041.22;4972062;28;42469;-74
2022/05/16 10:00:39;;;;;;;2.67;2.40;;;;;;;29.00;37.12;99042.69;4989665;28;41552;-74
2022/05/16 10:03:23;;;;;;;3.20;2.00;;;;;;;29.02;37.65;99040.59;4989094;28;42498;-73
2022/05/16 10:05:53;;;;;;;2.70;2.00;;;;;;;29.21;37.87;99035.09;4992273;28;43859;-76
2022/05/16 10:08:27;;;;;;;2.27;2.07;;;;;;;29.53;37.85;99033.44;4973670;28;42278;-76
2022/05/16 10:10:58;;;;;;;2.53;2.20;;;;;;;30.43;37.45;99031.59;4956575;28;41963;-73
2022/05/16 10:13:25;;;;;;;3.50;2.33;;;;;;;32.70;33.67;99041.78;4990384;28;42740;-74
2022/05/16 10:15:56;;;;;;;5.03;2.33;;;;;;;33.83;30.78;99080.06;4975796;28;42848;-74
2022/05/16 10:18:26;;;;;;;3.00;2.80;;;;;;;34.33;29.86;99079.53;4991882;28;42847;-74
2022/05/16 10:21:00;;;;;;;3.73;2.27;;;;;;;35.48;28.55;99081.94;4990971;28;40953;-74
2022/05/16 10:23:33;;;;;;;2.23;2.00;;;;;;;36.22;28.25;99076.97;4989719;28;41640;-76
2022/05/16 10:26:06;;;;;;;3.47;2.40;;;;;;;37.08;27.12;99091.75;4978937;28;41616;-74
2022/05/16 10:28:37;;;;;;;2.67;2.33;;;;;;;36.95;26.85;99092.16;4972428;28;41265;-77
2022/05/16 10:33:55;;;;;;;4.03;2.33;;;;;;;36.11;27.88;99075.13;4937151;28;40381;-78
2022/05/16 10:36:27;;;;;;;3.00;2.50;;;;;;;36.98;26.96;99080.56;4957870;28;43782;-77
2022/05/16 10:39:04;;;;;;;2.43;2.23;;;;;;;37.30;26.88;99078.69;4989115;28;42283;-76
2022/05/16 10:41:36;;;;;;;3.63;2.43;;;;;;;36.78;26.50;99080.38;4989501;28;40285;-78
2022/05/16 10:44:16;;;;;;;3.23;2.30;;;;;;;36.25;26.99;99082.78;4983214;28;41716;-77
2022/05/16 10:46:59;;;;;;;2.50;2.33;;;;;;;36.18;28.70;99056.47;4947540;28;40993;-77
2022/05/16 10:49:34;;;;;;;2.77;2.53;;;;;;;36.21;28.24;99064.25;4924039;28;42174;-78
2022/05/16 10:52:15;;;;;;;2.73;2.53;;;;;;;36.81;28.23;99058.63;4964497;28;39918;-79
2022/05/16 10:54:43;;;;;;;3.60;2.33;;;;;;;37.24;28.15;99057.63;4951197;28;43149;-81
2022/05/16 10:57:23;;;;;;;3.30;2.37;;;;;;;36.63;27.33;99058.94;4972141;28;43794;-78
2022/05/16 11:00:06;;;;;;;2.57;2.30;;;;;;;36.05;27.59;99060.44;4954486;28;43248;-77
2022/05/16 11:02:53;;;;;;;2.83;2.53;;;;;;;35.89;27.44;99062.16;4969427;28;40435;-76
2022/05/16 11:05:39;;;;;;;2.67;2.40;;;;;;;35.94;28.97;99047.63;4968094;28;42696;-77
2022/05/16 11:08:18;;;;;;;3.07;2.50;;;;;;;36.25;29.22;99049.69;4968823;28;42145;-77
2022/05/16 11:10:54;;;;;;;2.80;2.60;;;;;;;36.14;28.57;99047.03;4989267;28;41994;-80
2022/05/16 11:13:32;;;;;;;3.93;2.70;;;;;;;36.00;28.56;99057.63;4988668;28;40018;-78
2022/05/16 11:16:05;;;;;;;2.57;2.40;;;;;;;35.71;27.27;99059.69;4990733;28;42495;-78
2022/05/16 11:18:50;;;;;;;3.03;2.47;;;;;;;35.37;27.53;99058.88;4988868;28;44235;-76
2022/05/16 11:21:32;;;;;;;3.10;2.50;;;;;;;35.01;27.72;99048.34;4991901;28;42316;-81
2022/05/16 11:24:11;;;;;;;2.97;2.57;;;;;;;35.22;29.05;99034.69;4990131;28;39958;-82
2022/05/16 11:26:44;;;;;;;3.17;2.57;;;;;;;35.45;28.95;99038.34;4974523;28;43561;-80
2022/05/16 11:29:19;;;;;;;3.07;2.67;;;;;;;35.20;28.74;99041.53;4990002;28;42703;-77
2022/05/16 11:32:03;;;;;;;4.63;3.10;;;;;;;35.09;28.83;99029.50;4974682;28;42934;-76
2022/05/16 11:34:45;;;;;;;2.67;2.47;;;;;;;35.12;29.00;99017.97;4988719;28;40017;-75
2022/05/16 11:37:19;;;;;;;3.13;2.83;;;;;;;35.27;28.80;99015.50;4988334;28;41768;-79
2022/05/16 11:39:54;;;;;;;2.93;2.70;;;;;;;35.48;29.39;99015.81;4989900;28;42647;-78
2022/05/16 11:42:29;;;;;;;3.53;2.63;;;;;;;35.54;28.52;99014.78;4988186;28;42236;-80
2022/05/16 11:45:09;;;;;;;2.90;2.70;;;;;;;36.21;27.87;99009.91;4990447;28;40935;-78
2022/05/16 11:47:44;;;;;;;2.50;2.30;;;;;;;36.42;27.44;98999.97;4991032;28;40795;-80
2022/05/16 11:50:22;;;;;;;2.80;2.60;;;;;;;35.94;28.31;99014.53;4989642;28;43484;-80
2022/05/16 11:52:56;;;;;;;3.73;2.40;;;;;;;35.32;29.47;99000.16;4987567;28;43233;-79
2022/05/16 12:01:05;;;;;;;3.30;3.00;;;;;;;34.36;31.13;98980.88;4990364;28;43595;-84
2022/05/16 12:03:40;;;;;;;3.47;2.83;;;;;;;34.88;30.54;98977.94;4989901;28;43542;-78
2022/05/16 12:06:25;;;;;;;3.03;2.73;;;;;;;34.76;30.24;98968.94;4990011;28;40154;-76
2022/05/16 12:09:15;;;;;;;4.27;2.43;;;;;;;34.46;30.23;98959.06;4974072;28;40954;-77
2022/05/16 12:11:54;;;;;;;4.57;2.97;;;;;;;34.26;30.33;98961.41;4985971;28;43675;-80
2022/05/16 12:14:29;;;;;;;2.70;2.50;;;;;;;34.26;32.19;98944.91;4972027;28;42367;-80
2022/05/16 12:17:17;;;;;;;2.83;2.60;;;;;;;34.13;31.54;98965.25;4961576;28;39051;-79
2022/05/16 12:19:48;;;;;;;3.87;2.80;;;;;;;33.56;31.67;98964.34;4990950;28;41554;-81
2022/05/16 12:22:22;;;;;;;3.27;2.70;;;;;;;33.07;33.18;98954.69;4991596;28;41808;-79
2022/05/16 12:25:09;;;;;;;2.60;2.40;;;;;;;32.72;33.69;98952.75;4963721;28;41708;-77
2022/05/16 12:27:41;;;;;;;2.80;2.60;;;;;;;32.59;33.00;98941.13;4976095;28;40234;-78
2022/05/16 12:30:11;;;;;;;3.20;2.30;;;;;;;32.74;33.16;98944.28;4969945;28;42469;-79
2022/05/16 12:32:56;;;;;;;3.97;3.13;;;;;;;33.67;31.49;98932.41;4982899;28;43760;-77